sensor_id;sensor_type;location;lat;lon;timestamp;P1;durP1;ratioP1;P2;durP2;ratioP2
37543;SDS011;23385;52.038;20.322;2022-11-20T15:28:20;53.67;;;33.17;;
37543;SDS011;23385;52.038;20.322;2022-11-20T15:30:50;63.87;;;31.70;;
37543;SDS011;23385;52.038;20.322;2022-11-20T15:33:17;51.90;;;30.00;;
37543;SDS011;23385;52.038;20.322;2022-11-20T15:40:20;53.27;;;29.53;;
37543;SDS011;23385;52.038;20.322;2022-11-20T15:42:47;54.87;;;30.87;;
37543;SDS011;23385;52.038;20.322;2022-11-20T15:45:29;56.67;;;29.70;;
37543;SDS011;23385;52.038;20.322;2022-11-20T15:50:33;64.07;;;34.00;;
37543;SDS011;23385;52.038;20.322;2022-11-20T15:55:39;72.07;;;40.00;;
37543;SDS011;23385;52.038;20.322;2022-11-20T15:58:05;92.90;;;49.00;;
37543;SDS011;23385;52.038;20.322;2022-11-20T16:00:32;85.30;;;46.40;;
37543;SDS011;23385;52.038;20.322;2022-11-20T16:05:36;78.83;;;42.47;;
37543;SDS011;23385;52.038;20.322;2022-11-20T16:08:03;82.27;;;42.23;;
37543;SDS011;23385;52.038;20.322;2022-11-20T16:10:30;80.33;;;43.20;;
37543;SDS011;23385;52.038;20.322;2022-11-20T16:12:56;74.37;;;38.40;;
37543;SDS011;23385;52.038;20.322;2022-11-20T16:15:41;69.53;;;36.27;;
37543;SDS011;23385;52.038;20.322;2022-11-20T16:18:10;68.43;;;36.60;;
37543;SDS011;23385;52.038;20.322;2022-11-20T16:20:37;72.20;;;36.83;;
37543;SDS011;23385;52.038;20.322;2022-11-20T16:23:03;69.50;;;35.93;;
37543;SDS011;23385;52.038;20.322;2022-11-20T16:25:30;65.47;;;35.20;;
37543;SDS011;23385;52.038;20.322;2022-11-20T16:27:56;70.77;;;36.43;;
37543;SDS011;23385;52.038;20.322;2022-11-20T16:30:22;63.07;;;33.83;;
37543;SDS011;23385;52.038;20.322;2022-11-20T16:32:48;65.33;;;34.90;;
37543;SDS011;23385;52.038;20.322;2022-11-20T16:35:15;63.77;;;34.53;;
37543;SDS011;23385;52.038;20.322;2022-11-20T16:37:42;64.60;;;35.90;;
37543;SDS011;23385;52.038;20.322;2022-11-20T16:40:09;63.97;;;35.47;;
37543;SDS011;23385;52.038;20.322;2022-11-20T16:42:36;61.00;;;33.97;;
37543;SDS011;23385;52.038;20.322;2022-11-20T16:45:02;63.77;;;33.93;;
37543;SDS011;23385;52.038;20.322;2022-11-20T16:47:33;65.47;;;35.07;;
37543;SDS011;23385;52.038;20.322;2022-11-20T16:50:00;65.77;;;35.40;;
37543;SDS011;23385;52.038;20.322;2022-11-20T16:52:29;62.40;;;34.97;;
37543;SDS011;23385;52.038;20.322;2022-11-20T16:54:55;65.77;;;37.10;;
37543;SDS011;23385;52.038;20.322;2022-11-20T16:57:22;71.40;;;36.97;;
37543;SDS011;23385;52.038;20.322;2022-11-20T16:59:48;76.20;;;38.10;;
37543;SDS011;23385;52.038;20.322;2022-11-20T17:02:14;75.17;;;39.00;;
37543;SDS011;23385;52.038;20.322;2022-11-20T17:04:40;72.50;;;39.60;;
37543;SDS011;23385;52.038;20.322;2022-11-20T17:07:07;78.43;;;40.43;;
37543;SDS011;23385;52.038;20.322;2022-11-20T17:09:33;78.40;;;38.37;;
37543;SDS011;23385;52.038;20.322;2022-11-20T17:11:59;92.60;;;46.10;;
37543;SDS011;23385;52.038;20.322;2022-11-20T17:14:25;86.60;;;43.27;;
37543;SDS011;23385;52.038;20.322;2022-11-20T17:16:51;90.63;;;47.47;;
37543;SDS011;23385;52.038;20.322;2022-11-20T17:19:18;80.17;;;42.97;;
37543;SDS011;23385;52.038;20.322;2022-11-20T17:21:44;74.00;;;37.03;;
37543;SDS011;23385;52.038;20.322;2022-11-20T17:24:10;67.33;;;36.33;;
37543;SDS011;23385;52.038;20.322;2022-11-20T17:26:38;73.57;;;38.53;;
37543;SDS011;23385;52.038;20.322;2022-11-20T17:29:26;73.77;;;39.77;;
37543;SDS011;23385;52.038;20.322;2022-11-20T17:31:52;82.87;;;42.77;;
37543;SDS011;23385;52.038;20.322;2022-11-20T17:34:19;72.37;;;39.27;;
37543;SDS011;23385;52.038;20.322;2022-11-20T17:36:44;76.90;;;39.77;;
37543;SDS011;23385;52.038;20.322;2022-11-20T17:39:11;100.57;;;48.43;;
37543;SDS011;23385;52.038;20.322;2022-11-20T17:41:37;97.87;;;48.53;;
37543;SDS011;23385;52.038;20.322;2022-11-20T17:44:03;85.43;;;44.10;;
37543;SDS011;23385;52.038;20.322;2022-11-20T17:46:30;90.83;;;47.00;;
37543;SDS011;23385;52.038;20.322;2022-11-20T17:48:57;90.53;;;46.40;;
37543;SDS011;23385;52.038;20.322;2022-11-20T17:51:25;86.73;;;48.73;;
37543;SDS011;23385;52.038;20.322;2022-11-20T17:53:54;89.83;;;46.13;;
37543;SDS011;23385;52.038;20.322;2022-11-20T17:56:31;85.17;;;48.57;;
37543;SDS011;23385;52.038;20.322;2022-11-20T17:59:17;79.33;;;43.57;;
37543;SDS011;23385;52.038;20.322;2022-11-20T18:01:44;79.13;;;39.97;;
37543;SDS011;23385;52.038;20.322;2022-11-20T18:04:10;74.10;;;38.53;;
37543;SDS011;23385;52.038;20.322;2022-11-20T18:06:37;71.80;;;37.70;;
37543;SDS011;23385;52.038;20.322;2022-11-20T18:09:04;73.07;;;37.47;;
37543;SDS011;23385;52.038;20.322;2022-11-20T18:11:32;74.90;;;37.30;;
37543;SDS011;23385;52.038;20.322;2022-11-20T18:13:59;78.37;;;38.23;;
37543;SDS011;23385;52.038;20.322;2022-11-20T18:16:46;73.97;;;36.97;;
37543;SDS011;23385;52.038;20.322;2022-11-20T18:19:14;85.03;;;40.77;;
37543;SDS011;23385;52.038;20.322;2022-11-20T18:21:40;80.03;;;39.60;;
37543;SDS011;23385;52.038;20.322;2022-11-20T18:24:07;79.73;;;40.20;;
37543;SDS011;23385;52.038;20.322;2022-11-20T18:26:34;77.80;;;38.83;;
37543;SDS011;23385;52.038;20.322;2022-11-20T18:29:00;76.53;;;39.37;;
37543;SDS011;23385;52.038;20.322;2022-11-20T18:31:26;79.90;;;39.90;;
37543;SDS011;23385;52.038;20.322;2022-11-20T18:33:53;89.30;;;39.60;;
37543;SDS011;23385;52.038;20.322;2022-11-20T18:36:21;75.63;;;37.10;;
37543;SDS011;23385;52.038;20.322;2022-11-20T18:38:48;80.33;;;41.57;;
37543;SDS011;23385;52.038;20.322;2022-11-20T18:41:18;76.83;;;42.30;;
37543;SDS011;23385;52.038;20.322;2022-11-20T18:44:04;70.97;;;37.37;;
37543;SDS011;23385;52.038;20.322;2022-11-20T18:46:48;76.53;;;36.23;;
37543;SDS011;23385;52.038;20.322;2022-11-20T18:49:14;84.30;;;39.37;;
37543;SDS011;23385;52.038;20.322;2022-11-20T18:51:41;86.00;;;44.17;;
37543;SDS011;23385;52.038;20.322;2022-11-20T18:54:10;81.57;;;41.77;;
37543;SDS011;23385;52.038;20.322;2022-11-20T18:56:37;90.93;;;43.83;;
37543;SDS011;23385;52.038;20.322;2022-11-20T18:59:04;97.13;;;43.00;;
37543;SDS011;23385;52.038;20.322;2022-11-20T19:01:30;92.33;;;44.03;;
37543;SDS011;23385;52.038;20.322;2022-11-20T19:03:56;84.50;;;42.17;;
37543;SDS011;23385;52.038;20.322;2022-11-20T19:06:23;76.87;;;36.77;;
37543;SDS011;23385;52.038;20.322;2022-11-20T19:08:52;81.50;;;38.17;;
37543;SDS011;23385;52.038;20.322;2022-11-20T19:11:18;77.33;;;38.53;;
37543;SDS011;23385;52.038;20.322;2022-11-20T19:13:44;74.53;;;36.80;;
37543;SDS011;23385;52.038;20.322;2022-11-20T19:16:15;83.13;;;42.30;;
37543;SDS011;23385;52.038;20.322;2022-11-20T19:18:43;85.03;;;44.50;;
37543;SDS011;23385;52.038;20.322;2022-11-20T19:21:10;92.37;;;43.10;;
37543;SDS011;23385;52.038;20.322;2022-11-20T19:23:37;78.40;;;40.17;;
37543;SDS011;23385;52.038;20.322;2022-11-20T19:26:03;78.93;;;38.50;;
37543;SDS011;23385;52.038;20.322;2022-11-20T19:28:33;83.93;;;39.70;;
37543;SDS011;23385;52.038;20.322;2022-11-20T19:31:03;80.53;;;40.37;;
37543;SDS011;23385;52.038;20.322;2022-11-20T19:33:30;81.73;;;40.63;;
37543;SDS011;23385;52.038;20.322;2022-11-20T19:36:10;87.07;;;43.67;;
37543;SDS011;23385;52.038;20.322;2022-11-20T19:38:37;88.87;;;39.50;;
37543;SDS011;23385;52.038;20.322;2022-11-20T19:41:36;82.70;;;39.30;;
37543;SDS011;23385;52.038;20.322;2022-11-20T19:44:08;78.83;;;38.30;;
37543;SDS011;23385;52.038;20.322;2022-11-20T19:46:37;95.30;;;42.60;;
37543;SDS011;23385;52.038;20.322;2022-11-20T19:49:04;86.63;;;41.77;;
37543;SDS011;23385;52.038;20.322;2022-11-20T19:51:34;86.97;;;40.37;;
37543;SDS011;23385;52.038;20.322;2022-11-20T19:54:01;89.87;;;40.63;;
37543;SDS011;23385;52.038;20.322;2022-11-20T19:56:28;76.57;;;39.40;;
37543;SDS011;23385;52.038;20.322;2022-11-20T19:58:55;88.47;;;42.73;;
37543;SDS011;23385;52.038;20.322;2022-11-20T20:01:22;93.83;;;43.03;;
37543;SDS011;23385;52.038;20.322;2022-11-20T20:03:49;94.20;;;45.50;;
37543;SDS011;23385;52.038;20.322;2022-11-20T20:06:16;92.60;;;43.50;;
37543;SDS011;23385;52.038;20.322;2022-11-20T20:08:45;104.30;;;48.47;;
37543;SDS011;23385;52.038;20.322;2022-11-20T20:11:15;98.60;;;48.30;;
37543;SDS011;23385;52.038;20.322;2022-11-20T20:13:43;93.93;;;43.03;;
37543;SDS011;23385;52.038;20.322;2022-11-20T20:16:10;101.67;;;46.60;;
37543;SDS011;23385;52.038;20.322;2022-11-20T20:18:38;106.50;;;47.23;;
37543;SDS011;23385;52.038;20.322;2022-11-20T20:21:05;104.73;;;48.80;;
37543;SDS011;23385;52.038;20.322;2022-11-20T20:23:32;93.47;;;44.87;;
37543;SDS011;23385;52.038;20.322;2022-11-20T20:25:59;104.00;;;48.33;;
37543;SDS011;23385;52.038;20.322;2022-11-20T20:28:26;107.23;;;52.43;;
37543;SDS011;23385;52.038;20.322;2022-11-20T20:30:52;87.47;;;44.43;;
37543;SDS011;23385;52.038;20.322;2022-11-20T20:33:19;109.93;;;51.83;;
37543;SDS011;23385;52.038;20.322;2022-11-20T20:35:45;103.87;;;46.47;;
37543;SDS011;23385;52.038;20.322;2022-11-20T20:38:11;109.83;;;54.00;;
37543;SDS011;23385;52.038;20.322;2022-11-20T20:40:44;100.50;;;45.13;;
37543;SDS011;23385;52.038;20.322;2022-11-20T20:43:12;100.53;;;48.27;;
37543;SDS011;23385;52.038;20.322;2022-11-20T20:45:43;95.23;;;46.33;;
37543;SDS011;23385;52.038;20.322;2022-11-20T20:48:10;96.43;;;46.00;;
37543;SDS011;23385;52.038;20.322;2022-11-20T20:50:36;101.00;;;43.17;;
37543;SDS011;23385;52.038;20.322;2022-11-20T20:53:02;96.53;;;44.73;;
37543;SDS011;23385;52.038;20.322;2022-11-20T20:55:28;100.70;;;43.33;;
37543;SDS011;23385;52.038;20.322;2022-11-20T20:57:55;97.23;;;43.67;;
37543;SDS011;23385;52.038;20.322;2022-11-20T21:00:21;97.70;;;46.50;;
37543;SDS011;23385;52.038;20.322;2022-11-20T21:02:47;91.17;;;44.37;;
37543;SDS011;23385;52.038;20.322;2022-11-20T21:05:13;95.40;;;42.83;;
37543;SDS011;23385;52.038;20.322;2022-11-20T21:07:39;95.77;;;44.47;;
37543;SDS011;23385;52.038;20.322;2022-11-20T21:10:25;96.50;;;45.30;;
37543;SDS011;23385;52.038;20.322;2022-11-20T21:12:52;94.47;;;44.23;;
37543;SDS011;23385;52.038;20.322;2022-11-20T21:15:18;95.00;;;44.57;;
37543;SDS011;23385;52.038;20.322;2022-11-20T21:17:44;94.60;;;42.80;;
37543;SDS011;23385;52.038;20.322;2022-11-20T21:20:10;93.67;;;42.70;;
37543;SDS011;23385;52.038;20.322;2022-11-20T21:23:09;94.27;;;42.83;;
37543;SDS011;23385;52.038;20.322;2022-11-20T21:25:36;88.57;;;42.90;;
37543;SDS011;23385;52.038;20.322;2022-11-20T21:28:03;101.20;;;43.77;;
37543;SDS011;23385;52.038;20.322;2022-11-20T21:30:31;94.37;;;43.00;;
37543;SDS011;23385;52.038;20.322;2022-11-20T21:32:57;91.93;;;43.53;;
37543;SDS011;23385;52.038;20.322;2022-11-20T21:35:23;105.37;;;44.80;;
37543;SDS011;23385;52.038;20.322;2022-11-20T21:37:49;89.27;;;42.27;;
37543;SDS011;23385;52.038;20.322;2022-11-20T21:40:16;94.37;;;43.40;;
37543;SDS011;23385;52.038;20.322;2022-11-20T21:42:42;92.90;;;41.90;;
37543;SDS011;23385;52.038;20.322;2022-11-20T21:45:09;89.57;;;40.37;;
37543;SDS011;23385;52.038;20.322;2022-11-20T21:47:35;94.90;;;43.73;;
37543;SDS011;23385;52.038;20.322;2022-11-20T21:50:02;100.60;;;42.57;;
37543;SDS011;23385;52.038;20.322;2022-11-20T21:52:28;96.77;;;42.33;;
37543;SDS011;23385;52.038;20.322;2022-11-20T21:54:54;94.67;;;44.17;;
37543;SDS011;23385;52.038;20.322;2022-11-20T21:57:20;100.90;;;43.13;;
37543;SDS011;23385;52.038;20.322;2022-11-20T21:59:46;98.77;;;45.37;;
37543;SDS011;23385;52.038;20.322;2022-11-20T22:02:12;97.13;;;44.93;;
37543;SDS011;23385;52.038;20.322;2022-11-20T22:04:39;111.20;;;50.23;;
37543;SDS011;23385;52.038;20.322;2022-11-20T22:07:05;106.60;;;46.43;;
37543;SDS011;23385;52.038;20.322;2022-11-20T22:09:31;103.70;;;48.47;;
37543;SDS011;23385;52.038;20.322;2022-11-20T22:11:58;95.10;;;45.60;;
37543;SDS011;23385;52.038;20.322;2022-11-20T22:14:24;102.80;;;47.50;;
37543;SDS011;23385;52.038;20.322;2022-11-20T22:16:51;109.13;;;48.13;;
37543;SDS011;23385;52.038;20.322;2022-11-20T22:19:18;101.53;;;48.90;;
37543;SDS011;23385;52.038;20.322;2022-11-20T22:21:45;103.83;;;47.90;;
37543;SDS011;23385;52.038;20.322;2022-11-20T22:24:12;98.87;;;45.27;;
37543;SDS011;23385;52.038;20.322;2022-11-20T22:26:38;104.93;;;46.23;;
37543;SDS011;23385;52.038;20.322;2022-11-20T22:29:04;100.37;;;47.20;;
37543;SDS011;23385;52.038;20.322;2022-11-20T22:31:31;100.30;;;46.07;;
37543;SDS011;23385;52.038;20.322;2022-11-20T22:33:57;102.00;;;46.53;;
37543;SDS011;23385;52.038;20.322;2022-11-20T22:36:25;99.27;;;46.67;;
37543;SDS011;23385;52.038;20.322;2022-11-20T22:38:52;98.93;;;45.40;;
37543;SDS011;23385;52.038;20.322;2022-11-20T22:41:19;111.77;;;49.07;;
37543;SDS011;23385;52.038;20.322;2022-11-20T22:43:46;107.50;;;46.87;;
37543;SDS011;23385;52.038;20.322;2022-11-20T22:46:13;110.73;;;50.77;;
37543;SDS011;23385;52.038;20.322;2022-11-20T22:48:41;104.27;;;48.20;;
37543;SDS011;23385;52.038;20.322;2022-11-20T22:51:11;102.27;;;50.47;;
37543;SDS011;23385;52.038;20.322;2022-11-20T22:53:38;113.03;;;52.60;;
37543;SDS011;23385;52.038;20.322;2022-11-20T22:56:05;111.23;;;48.20;;
37543;SDS011;23385;52.038;20.322;2022-11-20T22:58:32;103.10;;;50.57;;
37543;SDS011;23385;52.038;20.322;2022-11-20T23:03:44;105.53;;;48.90;;
37543;SDS011;23385;52.038;20.322;2022-11-20T23:06:12;111.67;;;49.90;;
37543;SDS011;23385;52.038;20.322;2022-11-20T23:08:39;101.93;;;47.90;;
37543;SDS011;23385;52.038;20.322;2022-11-20T23:11:15;99.13;;;45.60;;
37543;SDS011;23385;52.038;20.322;2022-11-20T23:13:42;106.97;;;45.93;;
37543;SDS011;23385;52.038;20.322;2022-11-20T23:16:10;99.07;;;44.13;;
37543;SDS011;23385;52.038;20.322;2022-11-20T23:18:38;103.83;;;45.70;;
37543;SDS011;23385;52.038;20.322;2022-11-20T23:23:36;99.43;;;46.03;;
37543;SDS011;23385;52.038;20.322;2022-11-20T23:26:06;99.47;;;46.47;;
37543;SDS011;23385;52.038;20.322;2022-11-20T23:28:33;101.37;;;46.73;;
37543;SDS011;23385;52.038;20.322;2022-11-20T23:30:59;105.77;;;47.83;;
37543;SDS011;23385;52.038;20.322;2022-11-20T23:33:25;107.70;;;47.93;;
37543;SDS011;23385;52.038;20.322;2022-11-20T23:35:52;101.27;;;47.00;;
37543;SDS011;23385;52.038;20.322;2022-11-20T23:38:18;108.27;;;49.10;;
37543;SDS011;23385;52.038;20.322;2022-11-20T23:40:48;111.23;;;53.47;;
37543;SDS011;23385;52.038;20.322;2022-11-20T23:43:18;110.97;;;48.27;;
37543;SDS011;23385;52.038;20.322;2022-11-20T23:45:45;114.83;;;50.53;;
37543;SDS011;23385;52.038;20.322;2022-11-20T23:48:12;108.03;;;50.10;;
37543;SDS011;23385;52.038;20.322;2022-11-20T23:50:39;104.63;;;49.27;;
37543;SDS011;23385;52.038;20.322;2022-11-20T23:53:05;108.37;;;48.90;;
37543;SDS011;23385;52.038;20.322;2022-11-20T23:55:31;119.67;;;51.30;;
37543;SDS011;23385;52.038;20.322;2022-11-20T23:57:58;108.37;;;47.93;;
